Time,TemperatureF,DewpointF,PressureIn,WindDirection,WindDirectionDegrees,WindSpeedMPH,WindSpeedGustMPH,Humidity,HourlyPrecipIn,Conditions,Clouds,dailyrainin,SoftwareType,DateUTC
2013-03-12 00:02:00,19.0,11.0,-100.00,WSW,250,2.0,2.0,71,0.00,,,-99.99,,2013-03-12 06:02:00,
2013-03-12 00:12:00,19.0,11.0,-100.00,WSW,250,2.0,2.0,71,0.00,,,-99.99,,2013-03-12 06:12:00,
2013-03-12 00:22:00,18.0,11.0,-100.00,SW,224,0.0,2.0,75,0.00,,,-99.99,,2013-03-12 06:22:00,
2013-03-12 00:31:00,18.0,11.0,-100.00,SW,224,0.0,2.0,75,0.00,,,-99.99,,2013-03-12 06:31:00,
2013-03-12 00:42:00,20.0,14.0,-100.00,SW,229,2.0,4.0,76,0.00,,,-99.99,,2013-03-12 06:42:00,
2013-03-12 00:52:00,20.0,13.0,-100.00,SW,230,0.0,2.0,75,0.00,,,-99.99,,2013-03-12 06:52:00,
2013-03-12 01:02:00,20.0,13.0,-100.00,SW,230,0.0,2.0,75,0.00,,,-99.99,,2013-03-12 07:02:00,
2013-03-12 01:12:00,20.0,13.0,-100.00,NNW,328,0.0,0.0,74,0.00,,,-99.99,,2013-03-12 07:12:00,
2013-03-12 01:21:00,20.0,13.0,-100.00,NNW,328,0.0,0.0,74,0.00,,,-99.99,,2013-03-12 07:21:00,
2013-03-12 01:32:00,20.0,13.0,-100.00,NNW,328,0.0,0.0,74,0.00,,,-99.99,,2013-03-12 07:32:00,
2013-03-12 01:42:00,18.0,13.0,-100.00,West,264,0.0,0.0,80,0.00,,,-99.99,,2013-03-12 07:42:00,
2013-03-12 01:52:00,19.0,14.0,-100.00,West,267,0.0,0.0,82,0.00,,,-99.99,,2013-03-12 07:52:00,
2013-03-12 02:02:00,19.0,14.0,-100.00,West,267,0.0,0.0,82,0.00,,,-99.99,,2013-03-12 08:02:00,
2013-03-12 02:12:00,19.0,16.0,-100.00,SE,126,0.0,0.0,87,0.00,,,-99.99,,2013-03-12 08:12:00,
2013-03-12 02:22:00,19.0,16.0,-100.00,SE,126,0.0,0.0,87,0.00,,,-99.99,,2013-03-12 08:22:00,
2013-03-12 02:32:00,19.0,16.0,-100.00,SE,126,0.0,0.0,87,0.00,,,-99.99,,2013-03-12 08:32:00,
2013-03-12 02:42:00,21.0,20.0,-100.00,SE,134,0.0,2.0,93,0.00,,,-99.99,,2013-03-12 08:42:00,
2013-03-12 02:52:00,22.0,19.0,-100.00,ESE,104,1.0,2.0,88,0.00,,,-99.99,,2013-03-12 08:52:00,
2013-03-12 03:03:00,22.0,19.0,-100.00,ESE,104,1.0,2.0,88,0.00,,,-99.99,,2013-03-12 09:03:00,
2013-03-12 03:11:00,23.0,19.0,-100.00,SE,140,2.0,3.0,84,0.00,,,-99.99,,2013-03-12 09:11:00,
2013-03-12 03:22:00,22.0,18.0,-100.00,SE,133,1.0,2.0,86,0.00,,,-99.99,,2013-03-12 09:22:00,
2013-03-12 03:32:00,22.0,18.0,-100.00,SE,133,1.0,2.0,86,0.00,,,-99.99,,2013-03-12 09:32:00,
2013-03-12 03:42:00,21.0,18.0,-100.00,SE,138,0.0,0.0,87,0.00,,,-99.99,,2013-03-12 09:42:00,
2013-03-12 03:52:00,21.0,18.0,-100.00,SE,138,0.0,0.0,87,0.00,,,-99.99,,2013-03-12 09:52:00,
2013-03-12 04:02:00,21.0,18.0,-100.00,SE,138,0.0,0.0,87,0.00,,,-99.99,,2013-03-12 10:02:00,
2013-03-12 04:12:00,21.0,18.0,-100.00,SE,128,2.0,5.0,89,0.00,,,-99.99,,2013-03-12 10:12:00,
2013-03-12 04:22:00,21.0,18.0,-100.00,SE,128,2.0,5.0,89,0.00,,,-99.99,,2013-03-12 10:22:00,
2013-03-12 04:32:00,21.0,18.0,-100.00,SE,128,2.0,5.0,89,0.00,,,-99.99,,2013-03-12 10:32:00,
2013-03-12 04:42:00,22.0,18.0,-100.00,SE,138,3.0,5.0,84,0.00,,,-99.99,,2013-03-12 10:42:00,
2013-03-12 04:52:00,22.0,18.0,-100.00,SE,138,3.0,5.0,84,0.00,,,-99.99,,2013-03-12 10:52:00,
2013-03-12 05:02:00,22.0,18.0,-100.00,SE,138,3.0,5.0,84,0.00,,,-99.99,,2013-03-12 11:02:00,
2013-03-12 05:12:00,22.0,18.0,-100.00,SE,144,2.0,4.0,84,0.00,,,-99.99,,2013-03-12 11:12:00,
2013-03-12 05:22:00,23.0,18.0,-100.00,SE,140,4.0,6.0,81,0.00,,,-99.99,,2013-03-12 11:22:00,
2013-03-12 05:32:00,23.0,18.0,-100.00,SE,140,4.0,6.0,81,0.00,,,-99.99,,2013-03-12 11:32:00,
2013-03-12 05:42:00,24.0,17.0,-100.00,SSE,161,4.0,8.0,76,0.00,,,-99.99,,2013-03-12 11:42:00,
2013-03-12 05:52:00,24.0,17.0,-100.00,SSE,161,4.0,8.0,76,0.00,,,-99.99,,2013-03-12 11:52:00,
2013-03-12 06:02:00,24.0,17.0,-100.00,SSE,161,4.0,8.0,76,0.00,,,-99.99,,2013-03-12 12:02:00,
2013-03-12 06:12:00,24.0,17.0,-100.00,SSE,161,4.0,8.0,76,0.00,,,-99.99,,2013-03-12 12:12:00,
2013-03-12 06:22:00,24.0,17.0,-100.00,South,178,5.0,8.0,76,0.00,,,-99.99,,2013-03-12 12:22:00,
2013-03-12 06:32:00,24.0,17.0,-100.00,South,178,5.0,8.0,76,0.00,,,-99.99,,2013-03-12 12:32:00,
2013-03-12 06:42:00,24.0,17.0,-100.00,South,178,5.0,8.0,76,0.00,,,-99.99,,2013-03-12 12:42:00,
2013-03-12 06:52:00,25.0,18.0,-100.00,South,174,6.0,11.0,74,0.00,,,-99.99,,2013-03-12 12:52:00,
2013-03-12 07:01:00,25.0,18.0,-100.00,South,174,6.0,11.0,74,0.00,,,-99.99,,2013-03-12 13:01:00,
2013-03-12 07:12:00,25.0,18.0,-100.00,South,171,6.0,12.0,74,0.04,,,-99.99,,2013-03-12 13:12:00,
2013-03-12 07:22:00,25.0,18.0,-100.00,South,169,7.0,11.0,74,0.00,,,-99.99,,2013-03-12 13:22:00,
2013-03-12 07:32:00,25.0,18.0,-100.00,South,169,7.0,11.0,74,0.00,,,-99.99,,2013-03-12 13:32:00,
2013-03-12 07:42:00,25.0,18.0,-100.00,South,172,5.0,8.0,76,0.00,,,-99.99,,2013-03-12 13:42:00,
2013-03-12 07:52:00,25.0,19.0,-100.00,SSE,165,5.0,8.0,79,0.00,,,-99.99,,2013-03-12 13:52:00,
2013-03-12 08:02:00,25.0,19.0,-100.00,SSE,165,5.0,8.0,79,0.00,,,-99.99,,2013-03-12 14:02:00,
2013-03-12 08:12:00,25.0,19.0,-100.00,South,171,5.0,8.0,79,0.00,,,-99.99,,2013-03-12 14:12:00,
2013-03-12 08:22:00,25.0,19.0,-100.00,SSE,167,5.0,7.0,79,0.00,,,-99.99,,2013-03-12 14:22:00,
2013-03-12 08:32:00,25.0,19.0,-100.00,SSE,167,5.0,7.0,79,0.00,,,-99.99,,2013-03-12 14:32:00,
2013-03-12 08:42:00,26.0,19.0,-100.00,South,171,6.0,9.0,74,0.00,,,-99.99,,2013-03-12 14:42:00,
2013-03-12 08:53:00,26.0,19.0,-100.00,South,171,6.0,9.0,74,0.00,,,-99.99,,2013-03-12 14:53:00,
2013-03-12 09:02:00,26.0,19.0,-100.00,South,171,6.0,9.0,74,0.00,,,-99.99,,2013-03-12 15:02:00,
2013-03-12 09:12:00,26.0,20.0,-100.00,SSE,168,5.0,7.0,79,0.00,,,-99.99,,2013-03-12 15:12:00,
2013-03-12 09:22:00,26.0,20.0,-100.00,SSE,168,5.0,7.0,79,0.00,,,-99.99,,2013-03-12 15:22:00,
2013-03-12 09:32:00,26.0,20.0,-100.00,SSE,168,5.0,7.0,79,0.00,,,-99.99,,2013-03-12 15:32:00,
2013-03-12 09:42:00,26.0,22.0,-100.00,SSE,164,5.0,7.0,84,0.00,,,-99.99,,2013-03-12 15:42:00,
2013-03-12 09:53:00,26.0,22.0,-100.00,SSE,161,6.0,9.0,86,0.00,,,-99.99,,2013-03-12 15:53:00,
2013-03-12 10:02:00,26.0,22.0,-100.00,SSE,161,6.0,9.0,86,0.00,,,-99.99,,2013-03-12 16:02:00,
2013-03-12 10:12:00,26.0,22.0,-100.00,SSE,161,6.0,9.0,86,0.00,,,-99.99,,2013-03-12 16:12:00,
2013-03-12 10:22:00,25.0,23.0,-100.00,SSE,152,7.0,9.0,91,0.00,,,-99.99,,2013-03-12 16:22:00,
2013-03-12 10:32:00,25.0,23.0,-100.00,SSE,152,7.0,9.0,91,0.00,,,-99.99,,2013-03-12 16:32:00,
2013-03-12 10:42:00,25.0,23.0,-100.00,SSE,151,7.0,10.0,91,0.00,,,-99.99,,2013-03-12 16:42:00,
2013-03-12 10:53:00,25.0,24.0,-100.00,SSE,150,5.0,9.0,93,0.00,,,-99.99,,2013-03-12 16:53:00,
2013-03-12 11:02:00,25.0,24.0,-100.00,SSE,150,5.0,9.0,93,0.00,,,-99.99,,2013-03-12 17:02:00,
2013-03-12 11:12:00,26.0,23.0,-100.00,SSE,155,5.0,6.0,89,0.00,,,-99.99,,2013-03-12 17:12:00,
2013-03-12 11:22:00,27.0,22.0,-100.00,SSE,158,5.0,8.0,84,0.00,,,-99.99,,2013-03-12 17:22:00,
2013-03-12 11:33:00,27.0,22.0,-100.00,SSE,158,5.0,8.0,84,0.00,,,-99.99,,2013-03-12 17:33:00,
2013-03-12 11:43:00,28.0,23.0,-100.00,SSE,155,7.0,10.0,80,0.00,,,-99.99,,2013-03-12 17:43:00,
2013-03-12 11:53:00,28.0,23.0,-100.00,SSE,155,7.0,10.0,80,0.00,,,-99.99,,2013-03-12 17:53:00,
2013-03-12 12:02:00,28.0,23.0,-100.00,SSE,155,7.0,10.0,80,0.00,,,-99.99,,2013-03-12 18:02:00,
2013-03-12 12:12:00,30.0,23.0,-100.00,SSE,162,5.0,9.0,76,0.00,,,-99.99,,2013-03-12 18:12:00,
2013-03-12 12:22:00,30.0,23.0,-100.00,SSE,162,5.0,9.0,76,0.00,,,-99.99,,2013-03-12 18:22:00,
2013-03-12 12:33:00,30.0,23.0,-100.00,SSE,162,5.0,9.0,76,0.00,,,-99.99,,2013-03-12 18:33:00,
2013-03-12 12:42:00,31.0,24.0,-100.00,SE,145,6.0,10.0,76,0.00,,,-99.99,,2013-03-12 18:42:00,
2013-03-12 12:53:00,31.0,26.0,-100.00,SSE,150,7.0,11.0,79,0.00,,,-99.99,,2013-03-12 18:53:00,
2013-03-12 13:03:00,31.0,26.0,-100.00,SSE,150,7.0,11.0,79,0.00,,,-99.99,,2013-03-12 19:03:00,
2013-03-12 13:13:00,32.0,26.0,-100.00,SSE,148,5.0,8.0,80,0.00,,,-99.99,,2013-03-12 19:13:00,
2013-03-12 13:22:00,32.0,26.0,-100.00,SSE,148,5.0,8.0,80,0.00,,,-99.99,,2013-03-12 19:22:00,
2013-03-12 13:32:00,32.0,26.0,-100.00,SSE,148,5.0,8.0,80,0.00,,,-99.99,,2013-03-12 19:32:00,
2013-03-12 13:43:00,32.0,26.0,-100.00,SSE,158,4.0,6.0,78,0.00,,,-99.99,,2013-03-12 19:43:00,
2013-03-12 13:53:00,32.0,26.0,-100.00,SSE,158,4.0,6.0,78,0.00,,,-99.99,,2013-03-12 19:53:00,
2013-03-12 14:02:00,32.0,26.0,-100.00,SSE,158,4.0,6.0,78,0.00,,,-99.99,,2013-03-12 20:02:00,
2013-03-12 14:12:00,33.0,25.0,-100.00,SSE,147,6.0,9.0,73,0.00,,,-99.99,,2013-03-12 20:12:00,
2013-03-12 14:22:00,34.0,26.0,-100.00,SSE,164,5.0,8.0,70,0.00,,,-99.99,,2013-03-12 20:22:00,
2013-03-12 14:32:00,34.0,26.0,-100.00,SSE,164,5.0,8.0,70,0.00,,,-99.99,,2013-03-12 20:32:00,
2013-03-12 14:42:00,37.0,26.0,-100.00,SE,124,6.0,9.0,65,0.00,,,-99.99,,2013-03-12 20:42:00,
2013-03-12 14:53:00,37.0,26.0,-100.00,SE,124,6.0,9.0,65,0.00,,,-99.99,,2013-03-12 20:53:00,
2013-03-12 15:02:00,37.0,26.0,-100.00,SE,124,6.0,9.0,65,0.00,,,-99.99,,2013-03-12 21:02:00,
2013-03-12 15:12:00,37.0,27.0,-100.00,South,171,4.0,8.0,65,0.00,,,-99.99,,2013-03-12 21:12:00,
2013-03-12 15:22:00,37.0,27.0,-100.00,SSE,154,6.0,10.0,66,0.00,,,-99.99,,2013-03-12 21:22:00,
2013-03-12 15:32:00,37.0,27.0,-100.00,SSE,154,6.0,10.0,66,0.00,,,-99.99,,2013-03-12 21:32:00,
2013-03-12 15:42:00,38.0,26.0,-100.00,SE,145,5.0,10.0,63,0.00,,,-99.99,,2013-03-12 21:42:00,
2013-03-12 15:52:00,38.0,27.0,-100.00,SSE,161,6.0,9.0,63,0.00,,,-99.99,,2013-03-12 21:52:00,
2013-03-12 16:02:00,38.0,27.0,-100.00,SSE,161,6.0,9.0,63,0.00,,,-99.99,,2013-03-12 22:02:00,
2013-03-12 16:12:00,38.0,27.0,-100.00,SSE,161,6.0,9.0,63,0.00,,,-99.99,,2013-03-12 22:12:00,
2013-03-12 16:22:00,40.0,27.0,-100.00,SE,130,6.0,8.0,59,0.00,,,-99.99,,2013-03-12 22:22:00,
2013-03-12 16:32:00,40.0,27.0,-100.00,SE,130,6.0,8.0,59,0.00,,,-99.99,,2013-03-12 22:32:00,
2013-03-12 16:42:00,40.0,27.0,-100.00,SE,145,5.0,8.0,60,0.00,,,-99.99,,2013-03-12 22:42:00,
2013-03-12 16:53:00,41.0,27.0,-100.00,SE,145,7.0,12.0,57,0.00,,,-99.99,,2013-03-12 22:53:00,
2013-03-12 17:02:00,41.0,27.0,-100.00,SE,145,7.0,12.0,57,0.00,,,-99.99,,2013-03-12 23:02:00,
2013-03-12 17:12:00,42.0,27.0,-100.00,SE,145,6.0,9.0,57,0.00,,,-99.99,,2013-03-12 23:12:00,
2013-03-12 17:22:00,41.0,28.0,-100.00,South,184,3.0,6.0,58,0.00,,,-99.99,,2013-03-12 23:22:00,
2013-03-12 17:34:00,41.0,28.0,-100.00,South,184,3.0,6.0,58,0.00,,,-99.99,,2013-03-12 23:34:00,
2013-03-12 17:43:00,42.0,26.0,-100.00,SE,136,6.0,10.0,53,0.00,,,-99.99,,2013-03-12 23:43:00,
2013-03-12 17:52:00,43.0,26.0,-100.00,SSW,200,2.0,5.0,50,0.00,,,-99.99,,2013-03-12 23:52:00,
2013-03-12 18:02:00,43.0,26.0,-100.00,SSW,200,2.0,5.0,50,0.00,,,-99.99,,2013-03-13 00:02:00,
2013-03-12 18:12:00,42.0,24.0,-100.00,WSW,257,6.0,15.0,47,0.00,,,-99.99,,2013-03-13 00:12:00,
2013-03-12 18:22:00,42.0,24.0,-100.00,WSW,257,6.0,15.0,47,0.00,,,-99.99,,2013-03-13 00:22:00,
2013-03-12 18:33:00,42.0,24.0,-100.00,WSW,257,6.0,15.0,47,0.00,,,-99.99,,2013-03-13 00:33:00,
2013-03-12 18:42:00,41.0,23.0,-100.00,WSW,250,4.0,10.0,47,0.00,,,-99.99,,2013-03-13 00:42:00,
2013-03-12 18:53:00,41.0,25.0,-100.00,SE,140,2.0,4.0,52,0.00,,,-99.99,,2013-03-13 00:53:00,
2013-03-12 19:02:00,41.0,25.0,-100.00,SE,140,2.0,4.0,52,0.00,,,-99.99,,2013-03-13 01:02:00,
2013-03-12 19:12:00,41.0,25.0,-100.00,SE,140,2.0,4.0,52,0.00,,,-99.99,,2013-03-13 01:12:00,
2013-03-12 19:22:00,40.0,26.0,-100.00,WSW,251,5.0,8.0,58,0.00,,,-99.99,,2013-03-13 01:22:00,
2013-03-12 19:31:00,40.0,26.0,-100.00,WSW,251,5.0,8.0,58,0.00,,,-99.99,,2013-03-13 01:31:00,
2013-03-12 19:43:00,40.0,26.0,-100.00,WSW,251,5.0,8.0,58,0.00,,,-99.99,,2013-03-13 01:43:00,
2013-03-12 19:52:00,39.0,26.0,-100.00,WNW,285,1.0,5.0,58,0.00,,,-99.99,,2013-03-13 01:52:00,
2013-03-12 20:02:00,39.0,26.0,-100.00,WNW,285,1.0,5.0,58,0.00,,,-99.99,,2013-03-13 02:02:00,
2013-03-12 20:12:00,38.0,27.0,-100.00,West,261,6.0,11.0,64,0.00,,,-99.99,,2013-03-13 02:12:00,
2013-03-12 20:22:00,38.0,27.0,-100.00,West,261,6.0,11.0,64,0.00,,,-99.99,,2013-03-13 02:22:00,
2013-03-12 20:32:00,38.0,27.0,-100.00,West,261,6.0,11.0,64,0.00,,,-99.99,,2013-03-13 02:32:00,
2013-03-12 20:42:00,37.0,28.0,-100.00,SSE,155,6.0,15.0,67,0.00,,,-99.99,,2013-03-13 02:42:00,
2013-03-12 20:52:00,37.0,28.0,-100.00,SSE,155,6.0,15.0,67,0.00,,,-99.99,,2013-03-13 02:52:00,
2013-03-12 21:02:00,37.0,28.0,-100.00,SSE,155,6.0,15.0,67,0.00,,,-99.99,,2013-03-13 03:02:00,
2013-03-12 21:12:00,37.0,28.0,-100.00,ESE,123,6.0,9.0,69,0.00,,,-99.99,,2013-03-13 03:12:00,
2013-03-12 21:22:00,36.0,27.0,-100.00,ESE,110,1.0,3.0,69,0.00,,,-99.99,,2013-03-13 03:22:00,
2013-03-12 21:32:00,36.0,27.0,-100.00,ESE,110,1.0,3.0,69,0.00,,,-99.99,,2013-03-13 03:32:00,
2013-03-12 21:42:00,36.0,27.0,-100.00,SW,224,2.0,5.0,69,0.00,,,-99.99,,2013-03-13 03:42:00,
2013-03-12 21:52:00,36.0,27.0,-100.00,SW,224,2.0,5.0,69,0.00,,,-99.99,,2013-03-13 03:52:00,
2013-03-12 22:02:00,36.0,27.0,-100.00,SW,224,2.0,5.0,69,0.00,,,-99.99,,2013-03-13 04:02:00,
2013-03-12 22:12:00,36.0,27.0,-100.00,SSW,208,3.0,5.0,69,0.00,,,-99.99,,2013-03-13 04:12:00,
2013-03-12 22:22:00,34.0,26.0,-100.00,South,174,2.0,4.0,72,0.00,,,-99.99,,2013-03-13 04:22:00,
2013-03-12 22:32:00,34.0,26.0,-100.00,South,174,2.0,4.0,72,0.00,,,-99.99,,2013-03-13 04:32:00,
2013-03-12 22:42:00,34.0,27.0,-100.00,SE,144,3.0,5.0,74,0.00,,,-99.99,,2013-03-13 04:42:00,
2013-03-12 22:53:00,34.0,27.0,-100.00,SE,144,3.0,5.0,74,0.00,,,-99.99,,2013-03-13 04:53:00,
2013-03-12 23:02:00,34.0,27.0,-100.00,SE,144,3.0,5.0,74,0.00,,,-99.99,,2013-03-13 05:02:00,
2013-03-12 23:12:00,35.0,26.0,-100.00,SSE,152,4.0,6.0,69,0.00,,,-99.99,,2013-03-13 05:12:00,
2013-03-12 23:22:00,35.0,26.0,-100.00,SSE,152,4.0,6.0,69,0.00,,,-99.99,,2013-03-13 05:22:00,
2013-03-12 23:32:00,35.0,26.0,-100.00,SSE,152,4.0,6.0,69,0.00,,,-99.99,,2013-03-13 05:32:00,
2013-03-12 23:42:00,35.0,26.0,-100.00,SE,136,2.0,3.0,67,0.00,,,-99.99,,2013-03-13 05:42:00,
2013-03-12 23:52:00,36.0,26.0,-100.00,SSE,167,2.0,4.0,66,0.00,,,-99.99,,2013-03-13 05:52:00,